sensor_id;sensor_type;location;lat;lon;timestamp;P1;durP1;ratioP1;P2;durP2;ratioP2
46334;SDS011;32051;48.882;9.210;2023-04-25T00:01:39;1.50;;;1.45;;
46334;SDS011;32051;48.882;9.210;2023-04-25T00:04:05;1.10;;;1.08;;
46334;SDS011;32051;48.882;9.210;2023-04-25T00:06:32;1.27;;;1.20;;
46334;SDS011;32051;48.882;9.210;2023-04-25T00:09:01;0.93;;;0.93;;
46334;SDS011;32051;48.882;9.210;2023-04-25T00:11:28;1.23;;;1.13;;
46334;SDS011;32051;48.882;9.210;2023-04-25T00:13:56;1.13;;;1.02;;
46334;SDS011;32051;48.882;9.210;2023-04-25T00:16:22;1.20;;;1.10;;
46334;SDS011;32051;48.882;9.210;2023-04-25T00:18:48;3.58;;;1.63;;
46334;SDS011;32051;48.882;9.210;2023-04-25T00:21:18;1.88;;;1.40;;
46334;SDS011;32051;48.882;9.210;2023-04-25T00:23:45;3.40;;;1.50;;
46334;SDS011;32051;48.882;9.210;2023-04-25T00:26:11;1.30;;;1.20;;
46334;SDS011;32051;48.882;9.210;2023-04-25T00:28:38;3.50;;;1.80;;
46334;SDS011;32051;48.882;9.210;2023-04-25T00:31:05;1.48;;;1.38;;
46334;SDS011;32051;48.882;9.210;2023-04-25T00:33:31;2.78;;;1.35;;
46334;SDS011;32051;48.882;9.210;2023-04-25T00:35:57;2.00;;;1.83;;
46334;SDS011;32051;48.882;9.210;2023-04-25T00:38:23;1.42;;;1.33;;
46334;SDS011;32051;48.882;9.210;2023-04-25T00:40:49;8.13;;;1.85;;
46334;SDS011;32051;48.882;9.210;2023-04-25T00:43:15;2.10;;;1.95;;
46334;SDS011;32051;48.882;9.210;2023-04-25T00:45:41;2.45;;;2.10;;
46334;SDS011;32051;48.882;9.210;2023-04-25T00:48:08;4.70;;;1.80;;
46334;SDS011;32051;48.882;9.210;2023-04-25T00:50:35;1.85;;;1.60;;
46334;SDS011;32051;48.882;9.210;2023-04-25T00:53:01;2.47;;;1.67;;
46334;SDS011;32051;48.882;9.210;2023-04-25T00:55:28;1.70;;;1.60;;
46334;SDS011;32051;48.882;9.210;2023-04-25T00:57:56;2.42;;;2.25;;
46334;SDS011;32051;48.882;9.210;2023-04-25T01:00:22;4.05;;;1.75;;
46334;SDS011;32051;48.882;9.210;2023-04-25T01:02:48;1.73;;;1.63;;
46334;SDS011;32051;48.882;9.210;2023-04-25T01:05:15;2.08;;;1.70;;
46334;SDS011;32051;48.882;9.210;2023-04-25T01:07:44;1.90;;;1.67;;
46334;SDS011;32051;48.882;9.210;2023-04-25T01:10:10;3.72;;;1.80;;
46334;SDS011;32051;48.882;9.210;2023-04-25T01:12:37;2.03;;;1.55;;
46334;SDS011;32051;48.882;9.210;2023-04-25T01:15:03;1.77;;;1.63;;
46334;SDS011;32051;48.882;9.210;2023-04-25T01:17:29;1.88;;;1.60;;
46334;SDS011;32051;48.882;9.210;2023-04-25T01:19:56;1.67;;;1.40;;
46334;SDS011;32051;48.882;9.210;2023-04-25T01:22:22;2.08;;;1.98;;
46334;SDS011;32051;48.882;9.210;2023-04-25T01:24:49;1.67;;;1.58;;
46334;SDS011;32051;48.882;9.210;2023-04-25T01:27:16;2.10;;;1.92;;
46334;SDS011;32051;48.882;9.210;2023-04-25T01:29:42;1.42;;;1.42;;
46334;SDS011;32051;48.882;9.210;2023-04-25T01:32:09;1.60;;;1.48;;
46334;SDS011;32051;48.882;9.210;2023-04-25T01:34:35;1.70;;;1.38;;
46334;SDS011;32051;48.882;9.210;2023-04-25T01:37:01;3.47;;;1.58;;
46334;SDS011;32051;48.882;9.210;2023-04-25T01:39:27;3.85;;;2.05;;
46334;SDS011;32051;48.882;9.210;2023-04-25T01:41:53;2.97;;;1.45;;
46334;SDS011;32051;48.882;9.210;2023-04-25T01:44:20;4.65;;;1.58;;
46334;SDS011;32051;48.882;9.210;2023-04-25T01:46:47;2.40;;;2.30;;
46334;SDS011;32051;48.882;9.210;2023-04-25T01:49:13;1.83;;;1.70;;
46334;SDS011;32051;48.882;9.210;2023-04-25T01:51:41;4.50;;;2.13;;
46334;SDS011;32051;48.882;9.210;2023-04-25T01:54:07;2.08;;;1.88;;
46334;SDS011;32051;48.882;9.210;2023-04-25T01:56:36;2.25;;;2.05;;
46334;SDS011;32051;48.882;9.210;2023-04-25T01:59:02;2.53;;;2.00;;
46334;SDS011;32051;48.882;9.210;2023-04-25T02:01:49;1.95;;;1.85;;
46334;SDS011;32051;48.882;9.210;2023-04-25T02:04:22;2.47;;;1.77;;
46334;SDS011;32051;48.882;9.210;2023-04-25T02:06:48;1.90;;;1.67;;
46334;SDS011;32051;48.882;9.210;2023-04-25T02:09:15;1.75;;;1.60;;
46334;SDS011;32051;48.882;9.210;2023-04-25T02:11:46;1.60;;;1.50;;
46334;SDS011;32051;48.882;9.210;2023-04-25T02:14:27;3.28;;;2.22;;
46334;SDS011;32051;48.882;9.210;2023-04-25T02:17:26;1.85;;;1.75;;
46334;SDS011;32051;48.882;9.210;2023-04-25T02:19:52;2.90;;;1.73;;
46334;SDS011;32051;48.882;9.210;2023-04-25T02:22:18;4.32;;;2.50;;
46334;SDS011;32051;48.882;9.210;2023-04-25T02:24:45;2.28;;;2.05;;
46334;SDS011;32051;48.882;9.210;2023-04-25T02:27:11;3.72;;;2.72;;
46334;SDS011;32051;48.882;9.210;2023-04-25T02:29:37;2.15;;;2.05;;
46334;SDS011;32051;48.882;9.210;2023-04-25T02:32:03;2.90;;;2.25;;
46334;SDS011;32051;48.882;9.210;2023-04-25T02:34:29;2.40;;;2.20;;
46334;SDS011;32051;48.882;9.210;2023-04-25T02:36:59;4.07;;;2.22;;
46334;SDS011;32051;48.882;9.210;2023-04-25T02:39:25;2.47;;;2.10;;
46334;SDS011;32051;48.882;9.210;2023-04-25T02:41:52;2.92;;;1.70;;
46334;SDS011;32051;48.882;9.210;2023-04-25T02:44:20;1.90;;;1.80;;
46334;SDS011;32051;48.882;9.210;2023-04-25T02:46:46;2.63;;;2.17;;
46334;SDS011;32051;48.882;9.210;2023-04-25T02:49:12;2.47;;;1.60;;
46334;SDS011;32051;48.882;9.210;2023-04-25T02:51:38;2.20;;;1.75;;
46334;SDS011;32051;48.882;9.210;2023-04-25T02:54:04;3.58;;;1.90;;
46334;SDS011;32051;48.882;9.210;2023-04-25T02:56:35;5.15;;;2.00;;
46334;SDS011;32051;48.882;9.210;2023-04-25T02:59:03;4.22;;;2.05;;
46334;SDS011;32051;48.882;9.210;2023-04-25T03:01:30;4.07;;;2.03;;
46334;SDS011;32051;48.882;9.210;2023-04-25T03:03:56;2.83;;;1.70;;
46334;SDS011;32051;48.882;9.210;2023-04-25T03:06:23;2.03;;;1.92;;
46334;SDS011;32051;48.882;9.210;2023-04-25T03:08:49;4.50;;;2.28;;
46334;SDS011;32051;48.882;9.210;2023-04-25T03:11:16;1.92;;;1.83;;
46334;SDS011;32051;48.882;9.210;2023-04-25T03:13:42;3.45;;;2.05;;
46334;SDS011;32051;48.882;9.210;2023-04-25T03:16:09;1.85;;;1.75;;
46334;SDS011;32051;48.882;9.210;2023-04-25T03:18:36;3.28;;;1.70;;
46334;SDS011;32051;48.882;9.210;2023-04-25T03:21:02;2.08;;;1.98;;
46334;SDS011;32051;48.882;9.210;2023-04-25T03:23:30;1.60;;;1.50;;
46334;SDS011;32051;48.882;9.210;2023-04-25T03:25:56;2.42;;;2.17;;
46334;SDS011;32051;48.882;9.210;2023-04-25T03:28:22;4.95;;;1.60;;
46334;SDS011;32051;48.882;9.210;2023-04-25T03:30:48;2.58;;;2.38;;
46334;SDS011;32051;48.882;9.210;2023-04-25T03:33:14;3.38;;;1.88;;
46334;SDS011;32051;48.882;9.210;2023-04-25T03:35:41;3.80;;;2.05;;
46334;SDS011;32051;48.882;9.210;2023-04-25T03:38:07;2.45;;;2.35;;
46334;SDS011;32051;48.882;9.210;2023-04-25T03:40:38;3.53;;;1.83;;
46334;SDS011;32051;48.882;9.210;2023-04-25T03:43:13;3.45;;;2.10;;
46334;SDS011;32051;48.882;9.210;2023-04-25T03:45:45;1.80;;;1.70;;
46334;SDS011;32051;48.882;9.210;2023-04-25T03:48:11;2.33;;;1.92;;
46334;SDS011;32051;48.882;9.210;2023-04-25T03:50:37;2.47;;;2.30;;
46334;SDS011;32051;48.882;9.210;2023-04-25T03:53:04;2.75;;;2.22;;
46334;SDS011;32051;48.882;9.210;2023-04-25T03:55:44;2.05;;;1.95;;
46334;SDS011;32051;48.882;9.210;2023-04-25T03:58:10;3.05;;;2.58;;
46334;SDS011;32051;48.882;9.210;2023-04-25T04:00:37;2.90;;;2.25;;
46334;SDS011;32051;48.882;9.210;2023-04-25T04:03:03;3.50;;;2.20;;
46334;SDS011;32051;48.882;9.210;2023-04-25T04:05:29;3.28;;;3.08;;
46334;SDS011;32051;48.882;9.210;2023-04-25T04:07:56;4.47;;;2.38;;
46334;SDS011;32051;48.882;9.210;2023-04-25T04:10:23;2.10;;;2.00;;
46334;SDS011;32051;48.882;9.210;2023-04-25T04:12:49;2.38;;;2.17;;
46334;SDS011;32051;48.882;9.210;2023-04-25T04:15:16;3.22;;;2.20;;
46334;SDS011;32051;48.882;9.210;2023-04-25T04:17:44;2.42;;;2.22;;
46334;SDS011;32051;48.882;9.210;2023-04-25T04:20:11;5.20;;;2.38;;
46334;SDS011;32051;48.882;9.210;2023-04-25T04:22:39;3.45;;;2.47;;
46334;SDS011;32051;48.882;9.210;2023-04-25T04:25:09;2.60;;;2.40;;
46334;SDS011;32051;48.882;9.210;2023-04-25T04:27:55;4.85;;;2.60;;
46334;SDS011;32051;48.882;9.210;2023-04-25T04:30:41;3.53;;;2.88;;
46334;SDS011;32051;48.882;9.210;2023-04-25T04:33:11;6.78;;;2.67;;
46334;SDS011;32051;48.882;9.210;2023-04-25T04:35:41;8.77;;;3.67;;
46334;SDS011;32051;48.882;9.210;2023-04-25T04:38:09;5.20;;;3.25;;
46334;SDS011;32051;48.882;9.210;2023-04-25T04:40:36;4.00;;;3.13;;
46334;SDS011;32051;48.882;9.210;2023-04-25T04:43:17;2.55;;;2.40;;
46334;SDS011;32051;48.882;9.210;2023-04-25T04:46:09;3.93;;;2.63;;
46334;SDS011;32051;48.882;9.210;2023-04-25T04:49:02;2.90;;;2.78;;
46334;SDS011;32051;48.882;9.210;2023-04-25T04:51:49;3.28;;;2.47;;
46334;SDS011;32051;48.882;9.210;2023-04-25T04:54:33;3.97;;;2.80;;
46334;SDS011;32051;48.882;9.210;2023-04-25T04:57:23;2.97;;;2.78;;
46334;SDS011;32051;48.882;9.210;2023-04-25T04:59:56;3.75;;;3.55;;
46334;SDS011;32051;48.882;9.210;2023-04-25T05:02:41;7.22;;;2.97;;
46334;SDS011;32051;48.882;9.210;2023-04-25T05:05:20;5.07;;;2.85;;
46334;SDS011;32051;48.882;9.210;2023-04-25T05:07:55;5.68;;;3.00;;
46334;SDS011;32051;48.882;9.210;2023-04-25T05:10:29;3.97;;;2.83;;
46334;SDS011;32051;48.882;9.210;2023-04-25T05:13:18;3.42;;;2.92;;
46334;SDS011;32051;48.882;9.210;2023-04-25T05:16:03;3.38;;;3.10;;
46334;SDS011;32051;48.882;9.210;2023-04-25T05:18:53;3.10;;;2.63;;
46334;SDS011;32051;48.882;9.210;2023-04-25T05:21:40;3.00;;;2.70;;
46334;SDS011;32051;48.882;9.210;2023-04-25T05:24:22;2.80;;;2.70;;
46334;SDS011;32051;48.882;9.210;2023-04-25T05:27:06;2.60;;;2.50;;
46334;SDS011;32051;48.882;9.210;2023-04-25T05:32:31;2.95;;;2.75;;
46334;SDS011;32051;48.882;9.210;2023-04-25T05:34:57;2.60;;;2.40;;
46334;SDS011;32051;48.882;9.210;2023-04-25T05:37:27;2.72;;;2.47;;
46334;SDS011;32051;48.882;9.210;2023-04-25T05:40:13;3.15;;;2.85;;
46334;SDS011;32051;48.882;9.210;2023-04-25T05:43:11;2.65;;;2.45;;
46334;SDS011;32051;48.882;9.210;2023-04-25T05:45:59;3.30;;;3.10;;
46334;SDS011;32051;48.882;9.210;2023-04-25T05:51:37;2.55;;;2.42;;
46334;SDS011;32051;48.882;9.210;2023-04-25T05:54:19;2.88;;;2.63;;
46334;SDS011;32051;48.882;9.210;2023-04-25T05:56:45;2.63;;;2.42;;
46334;SDS011;32051;48.882;9.210;2023-04-25T05:59:11;2.50;;;2.30;;
46334;SDS011;32051;48.882;9.210;2023-04-25T06:01:37;3.22;;;2.72;;
46334;SDS011;32051;48.882;9.210;2023-04-25T06:04:03;2.65;;;2.45;;
46334;SDS011;32051;48.882;9.210;2023-04-25T06:06:31;3.05;;;2.85;;
46334;SDS011;32051;48.882;9.210;2023-04-25T06:08:58;2.55;;;2.35;;
46334;SDS011;32051;48.882;9.210;2023-04-25T06:11:24;2.67;;;2.47;;
46334;SDS011;32051;48.882;9.210;2023-04-25T06:13:51;3.13;;;2.83;;
46334;SDS011;32051;48.882;9.210;2023-04-25T06:16:18;3.20;;;3.00;;
46334;SDS011;32051;48.882;9.210;2023-04-25T06:18:44;2.78;;;2.58;;
46334;SDS011;32051;48.882;9.210;2023-04-25T06:21:10;4.05;;;2.80;;
46334;SDS011;32051;48.882;9.210;2023-04-25T06:23:36;6.00;;;2.72;;
46334;SDS011;32051;48.882;9.210;2023-04-25T06:26:05;2.45;;;2.33;;
46334;SDS011;32051;48.882;9.210;2023-04-25T06:28:34;4.95;;;2.45;;
46334;SDS011;32051;48.882;9.210;2023-04-25T06:31:01;2.55;;;2.35;;
46334;SDS011;32051;48.882;9.210;2023-04-25T06:33:29;2.67;;;2.47;;
46334;SDS011;32051;48.882;9.210;2023-04-25T06:35:56;5.72;;;2.33;;
46334;SDS011;32051;48.882;9.210;2023-04-25T06:38:25;3.33;;;3.03;;
46334;SDS011;32051;48.882;9.210;2023-04-25T06:40:52;5.85;;;2.80;;
46334;SDS011;32051;48.882;9.210;2023-04-25T06:43:18;2.17;;;2.03;;
46334;SDS011;32051;48.882;9.210;2023-04-25T06:46:04;2.92;;;2.72;;
46334;SDS011;32051;48.882;9.210;2023-04-25T06:48:34;2.67;;;2.47;;
46334;SDS011;32051;48.882;9.210;2023-04-25T06:51:01;2.63;;;2.42;;
46334;SDS011;32051;48.882;9.210;2023-04-25T06:53:27;4.03;;;2.70;;
46334;SDS011;32051;48.882;9.210;2023-04-25T06:55:58;5.68;;;2.60;;
46334;SDS011;32051;48.882;9.210;2023-04-25T06:58:29;4.10;;;2.83;;
46334;SDS011;32051;48.882;9.210;2023-04-25T07:00:55;1.90;;;1.80;;
46334;SDS011;32051;48.882;9.210;2023-04-25T07:03:23;3.33;;;2.47;;
46334;SDS011;32051;48.882;9.210;2023-04-25T07:05:54;2.15;;;2.05;;
46334;SDS011;32051;48.882;9.210;2023-04-25T07:08:20;6.13;;;2.58;;
46334;SDS011;32051;48.882;9.210;2023-04-25T07:10:46;3.17;;;2.03;;
46334;SDS011;32051;48.882;9.210;2023-04-25T07:13:12;2.58;;;2.38;;
46334;SDS011;32051;48.882;9.210;2023-04-25T07:15:39;2.58;;;2.38;;
46334;SDS011;32051;48.882;9.210;2023-04-25T07:18:06;2.45;;;2.25;;
46334;SDS011;32051;48.882;9.210;2023-04-25T07:20:32;5.55;;;2.28;;
46334;SDS011;32051;48.882;9.210;2023-04-25T07:22:58;4.10;;;2.70;;
46334;SDS011;32051;48.882;9.210;2023-04-25T07:25:25;2.60;;;2.40;;
46334;SDS011;32051;48.882;9.210;2023-04-25T07:27:51;2.85;;;2.65;;
46334;SDS011;32051;48.882;9.210;2023-04-25T07:30:20;3.30;;;3.00;;
46334;SDS011;32051;48.882;9.210;2023-04-25T07:32:46;4.15;;;2.97;;
46334;SDS011;32051;48.882;9.210;2023-04-25T07:35:12;3.33;;;3.03;;
46334;SDS011;32051;48.882;9.210;2023-04-25T07:37:40;4.20;;;3.10;;
46334;SDS011;32051;48.882;9.210;2023-04-25T07:40:10;3.22;;;2.83;;
46334;SDS011;32051;48.882;9.210;2023-04-25T07:42:41;3.70;;;3.40;;
46334;SDS011;32051;48.882;9.210;2023-04-25T07:45:09;3.50;;;3.30;;
46334;SDS011;32051;48.882;9.210;2023-04-25T07:47:36;3.05;;;2.85;;
46334;SDS011;32051;48.882;9.210;2023-04-25T07:50:03;5.40;;;3.30;;
46334;SDS011;32051;48.882;9.210;2023-04-25T07:52:30;5.70;;;3.67;;
46334;SDS011;32051;48.882;9.210;2023-04-25T07:55:05;4.28;;;3.88;;
46334;SDS011;32051;48.882;9.210;2023-04-25T07:57:51;3.42;;;3.13;;
46334;SDS011;32051;48.882;9.210;2023-04-25T08:00:17;3.92;;;3.63;;
46334;SDS011;32051;48.882;9.210;2023-04-25T08:02:50;8.93;;;3.80;;
46334;SDS011;32051;48.882;9.210;2023-04-25T08:05:16;4.78;;;4.38;;
46334;SDS011;32051;48.882;9.210;2023-04-25T08:07:47;4.45;;;3.95;;
46334;SDS011;32051;48.882;9.210;2023-04-25T08:10:13;6.75;;;5.05;;
46334;SDS011;32051;48.882;9.210;2023-04-25T08:12:41;4.70;;;4.40;;
46334;SDS011;32051;48.882;9.210;2023-04-25T08:15:07;4.95;;;4.55;;
46334;SDS011;32051;48.882;9.210;2023-04-25T08:17:37;9.10;;;5.13;;
46334;SDS011;32051;48.882;9.210;2023-04-25T08:20:04;6.10;;;5.00;;
46334;SDS011;32051;48.882;9.210;2023-04-25T08:22:34;8.27;;;5.22;;
46334;SDS011;32051;48.882;9.210;2023-04-25T08:25:15;5.80;;;5.22;;
46334;SDS011;32051;48.882;9.210;2023-04-25T08:27:42;5.53;;;5.03;;
46334;SDS011;32051;48.882;9.210;2023-04-25T08:30:09;6.80;;;5.60;;
46334;SDS011;32051;48.882;9.210;2023-04-25T08:32:37;5.05;;;4.65;;
46334;SDS011;32051;48.882;9.210;2023-04-25T08:35:29;11.13;;;5.57;;
46334;SDS011;32051;48.882;9.210;2023-04-25T08:37:55;5.32;;;4.60;;
46334;SDS011;32051;48.882;9.210;2023-04-25T08:40:23;5.88;;;4.78;;
46334;SDS011;32051;48.882;9.210;2023-04-25T08:42:59;8.27;;;5.53;;
46334;SDS011;32051;48.882;9.210;2023-04-25T08:45:27;5.95;;;5.47;;
46334;SDS011;32051;48.882;9.210;2023-04-25T08:47:53;6.35;;;5.85;;
46334;SDS011;32051;48.882;9.210;2023-04-25T08:50:22;6.13;;;5.65;;
46334;SDS011;32051;48.882;9.210;2023-04-25T08:52:50;9.23;;;4.95;;
46334;SDS011;32051;48.882;9.210;2023-04-25T08:55:18;5.05;;;4.57;;
46334;SDS011;32051;48.882;9.210;2023-04-25T08:57:44;5.20;;;4.70;;
46334;SDS011;32051;48.882;9.210;2023-04-25T09:00:11;5.03;;;4.63;;
46334;SDS011;32051;48.882;9.210;2023-04-25T09:02:40;4.53;;;4.07;;
46334;SDS011;32051;48.882;9.210;2023-04-25T09:05:08;5.78;;;5.10;;
46334;SDS011;32051;48.882;9.210;2023-04-25T09:07:35;5.72;;;4.78;;
46334;SDS011;32051;48.882;9.210;2023-04-25T09:10:02;4.43;;;4.13;;
46334;SDS011;32051;48.882;9.210;2023-04-25T09:12:31;6.93;;;4.50;;
46334;SDS011;32051;48.882;9.210;2023-04-25T09:15:05;4.53;;;4.18;;
46334;SDS011;32051;48.882;9.210;2023-04-25T09:17:55;5.05;;;4.60;;
46334;SDS011;32051;48.882;9.210;2023-04-25T09:20:22;9.50;;;5.53;;
46334;SDS011;32051;48.882;9.210;2023-04-25T09:22:49;7.35;;;6.63;;
46334;SDS011;32051;48.882;9.210;2023-04-25T09:25:26;7.40;;;6.68;;
46334;SDS011;32051;48.882;9.210;2023-04-25T09:27:53;8.75;;;6.55;;
46334;SDS011;32051;48.882;9.210;2023-04-25T09:30:29;6.70;;;6.20;;
46334;SDS011;32051;48.882;9.210;2023-04-25T09:33:11;7.35;;;6.40;;
46334;SDS011;32051;48.882;9.210;2023-04-25T09:35:43;7.72;;;7.15;;
46334;SDS011;32051;48.882;9.210;2023-04-25T09:38:21;7.97;;;7.30;;
46334;SDS011;32051;48.882;9.210;2023-04-25T09:40:57;7.25;;;6.65;;
46334;SDS011;32051;48.882;9.210;2023-04-25T09:43:34;6.13;;;5.72;;
46334;SDS011;32051;48.882;9.210;2023-04-25T09:46:00;5.85;;;5.45;;
46334;SDS011;32051;48.882;9.210;2023-04-25T09:48:28;6.32;;;5.47;;
46334;SDS011;32051;48.882;9.210;2023-04-25T09:51:08;5.38;;;4.88;;
46334;SDS011;32051;48.882;9.210;2023-04-25T09:53:35;6.10;;;5.47;;
46334;SDS011;32051;48.882;9.210;2023-04-25T09:56:12;5.20;;;4.90;;
46334;SDS011;32051;48.882;9.210;2023-04-25T09:58:39;6.68;;;4.93;;
46334;SDS011;32051;48.882;9.210;2023-04-25T10:01:06;5.85;;;5.40;;
46334;SDS011;32051;48.882;9.210;2023-04-25T10:03:41;5.13;;;4.82;;
46334;SDS011;32051;48.882;9.210;2023-04-25T10:06:19;6.28;;;5.78;;
46334;SDS011;32051;48.882;9.210;2023-04-25T10:08:49;6.13;;;5.65;;
46334;SDS011;32051;48.882;9.210;2023-04-25T10:11:16;5.93;;;5.43;;
46334;SDS011;32051;48.882;9.210;2023-04-25T10:13:43;6.18;;;5.68;;
46334;SDS011;32051;48.882;9.210;2023-04-25T10:16:09;5.70;;;5.18;;
46334;SDS011;32051;48.882;9.210;2023-04-25T10:18:36;6.50;;;5.18;;
46334;SDS011;32051;48.882;9.210;2023-04-25T10:21:03;8.40;;;6.30;;
46334;SDS011;32051;48.882;9.210;2023-04-25T10:23:30;11.43;;;5.15;;
46334;SDS011;32051;48.882;9.210;2023-04-25T10:25:59;7.30;;;4.80;;
46334;SDS011;32051;48.882;9.210;2023-04-25T10:28:25;4.63;;;4.32;;
46334;SDS011;32051;48.882;9.210;2023-04-25T10:30:57;5.70;;;5.20;;
46334;SDS011;32051;48.882;9.210;2023-04-25T10:33:39;5.07;;;4.63;;
46334;SDS011;32051;48.882;9.210;2023-04-25T10:36:20;5.10;;;4.53;;
46334;SDS011;32051;48.882;9.210;2023-04-25T10:38:47;5.05;;;4.55;;
46334;SDS011;32051;48.882;9.210;2023-04-25T10:41:13;7.05;;;4.68;;
46334;SDS011;32051;48.882;9.210;2023-04-25T10:43:40;5.13;;;3.92;;
46334;SDS011;32051;48.882;9.210;2023-04-25T10:49:01;4.25;;;3.75;;
46334;SDS011;32051;48.882;9.210;2023-04-25T10:54:03;4.45;;;2.47;;
46334;SDS011;32051;48.882;9.210;2023-04-25T10:56:30;11.82;;;2.63;;
46334;SDS011;32051;48.882;9.210;2023-04-25T10:59:07;4.13;;;2.70;;
46334;SDS011;32051;48.882;9.210;2023-04-25T11:01:35;2.72;;;2.53;;
46334;SDS011;32051;48.882;9.210;2023-04-25T11:04:02;2.72;;;2.53;;
46334;SDS011;32051;48.882;9.210;2023-04-25T11:06:34;4.45;;;4.15;;
46334;SDS011;32051;48.882;9.210;2023-04-25T11:09:03;4.72;;;4.32;;
46334;SDS011;32051;48.882;9.210;2023-04-25T11:11:37;5.28;;;4.78;;
46334;SDS011;32051;48.882;9.210;2023-04-25T11:14:03;7.10;;;5.75;;
46334;SDS011;32051;48.882;9.210;2023-04-25T11:16:29;5.22;;;4.85;;
46334;SDS011;32051;48.882;9.210;2023-04-25T11:18:57;4.57;;;4.20;;
46334;SDS011;32051;48.882;9.210;2023-04-25T11:21:27;7.22;;;4.13;;
46334;SDS011;32051;48.882;9.210;2023-04-25T11:23:53;3.50;;;3.30;;
46334;SDS011;32051;48.882;9.210;2023-04-25T11:26:20;3.58;;;3.28;;
46334;SDS011;32051;48.882;9.210;2023-04-25T11:28:46;4.50;;;4.10;;
46334;SDS011;32051;48.882;9.210;2023-04-25T11:31:12;4.03;;;3.75;;
46334;SDS011;32051;48.882;9.210;2023-04-25T11:33:38;4.43;;;4.03;;
46334;SDS011;32051;48.882;9.210;2023-04-25T11:36:06;4.35;;;4.03;;
46334;SDS011;32051;48.882;9.210;2023-04-25T11:38:32;4.85;;;4.50;;
46334;SDS011;32051;48.882;9.210;2023-04-25T11:40:58;5.22;;;4.72;;
46334;SDS011;32051;48.882;9.210;2023-04-25T11:43:25;4.22;;;3.92;;
46334;SDS011;32051;48.882;9.210;2023-04-25T11:45:51;4.20;;;3.90;;
46334;SDS011;32051;48.882;9.210;2023-04-25T11:48:17;3.97;;;3.67;;
46334;SDS011;32051;48.882;9.210;2023-04-25T11:50:45;3.90;;;3.60;;
46334;SDS011;32051;48.882;9.210;2023-04-25T11:53:11;6.10;;;4.50;;
46334;SDS011;32051;48.882;9.210;2023-04-25T11:55:38;7.03;;;4.70;;
46334;SDS011;32051;48.882;9.210;2023-04-25T11:58:05;4.72;;;4.38;;
46334;SDS011;32051;48.882;9.210;2023-04-25T12:00:31;5.68;;;4.03;;
46334;SDS011;32051;48.882;9.210;2023-04-25T12:02:57;4.57;;;4.13;;
46334;SDS011;32051;48.882;9.210;2023-04-25T12:05:25;4.22;;;3.92;;
46334;SDS011;32051;48.882;9.210;2023-04-25T12:07:51;3.83;;;3.38;;
46334;SDS011;32051;48.882;9.210;2023-04-25T12:10:18;3.40;;;3.10;;
46334;SDS011;32051;48.882;9.210;2023-04-25T12:12:45;4.30;;;4.00;;
46334;SDS011;32051;48.882;9.210;2023-04-25T12:15:15;3.67;;;3.47;;
46334;SDS011;32051;48.882;9.210;2023-04-25T12:17:44;4.30;;;4.00;;
46334;SDS011;32051;48.882;9.210;2023-04-25T12:20:20;4.50;;;4.20;;
46334;SDS011;32051;48.882;9.210;2023-04-25T12:22:51;6.55;;;3.88;;
46334;SDS011;32051;48.882;9.210;2023-04-25T12:28:18;4.75;;;4.35;;
46334;SDS011;32051;48.882;9.210;2023-04-25T12:30:54;5.70;;;5.30;;
46334;SDS011;32051;48.882;9.210;2023-04-25T12:33:21;6.32;;;5.13;;
46334;SDS011;32051;48.882;9.210;2023-04-25T12:35:48;7.03;;;6.15;;
46334;SDS011;32051;48.882;9.210;2023-04-25T12:38:23;5.65;;;4.63;;
46334;SDS011;32051;48.882;9.210;2023-04-25T12:40:50;6.20;;;5.47;;
46334;SDS011;32051;48.882;9.210;2023-04-25T12:43:16;12.05;;;6.40;;
46334;SDS011;32051;48.882;9.210;2023-04-25T12:45:43;6.05;;;5.10;;
46334;SDS011;32051;48.882;9.210;2023-04-25T12:48:09;12.20;;;5.30;;
46334;SDS011;32051;48.882;9.210;2023-04-25T12:50:36;5.72;;;5.18;;
46334;SDS011;32051;48.882;9.210;2023-04-25T12:53:02;8.40;;;5.15;;
46334;SDS011;32051;48.882;9.210;2023-04-25T12:55:29;6.53;;;4.93;;
46334;SDS011;32051;48.882;9.210;2023-04-25T12:57:55;7.22;;;4.60;;
46334;SDS011;32051;48.882;9.210;2023-04-25T13:00:21;4.55;;;4.25;;
46334;SDS011;32051;48.882;9.210;2023-04-25T13:02:47;5.45;;;4.40;;
46334;SDS011;32051;48.882;9.210;2023-04-25T13:05:13;8.13;;;4.20;;
46334;SDS011;32051;48.882;9.210;2023-04-25T13:07:39;4.70;;;4.35;;
46334;SDS011;32051;48.882;9.210;2023-04-25T13:10:06;7.28;;;4.78;;
46334;SDS011;32051;48.882;9.210;2023-04-25T13:12:32;5.55;;;5.07;;
46334;SDS011;32051;48.882;9.210;2023-04-25T13:14:59;7.25;;;5.30;;
46334;SDS011;32051;48.882;9.210;2023-04-25T13:17:25;6.68;;;5.10;;
46334;SDS011;32051;48.882;9.210;2023-04-25T13:19:51;6.85;;;5.60;;
46334;SDS011;32051;48.882;9.210;2023-04-25T13:22:17;5.90;;;5.40;;
46334;SDS011;32051;48.882;9.210;2023-04-25T13:24:45;8.65;;;4.85;;
46334;SDS011;32051;48.882;9.210;2023-04-25T13:27:11;11.98;;;6.20;;
46334;SDS011;32051;48.882;9.210;2023-04-25T13:29:38;6.85;;;5.60;;
46334;SDS011;32051;48.882;9.210;2023-04-25T13:32:05;6.72;;;5.68;;
46334;SDS011;32051;48.882;9.210;2023-04-25T13:34:32;7.10;;;6.32;;
46334;SDS011;32051;48.882;9.210;2023-04-25T13:36:58;8.10;;;6.07;;
46334;SDS011;32051;48.882;9.210;2023-04-25T13:39:25;12.85;;;7.38;;
46334;SDS011;32051;48.882;9.210;2023-04-25T13:41:51;7.13;;;6.43;;
46334;SDS011;32051;48.882;9.210;2023-04-25T13:44:17;6.65;;;6.10;;
46334;SDS011;32051;48.882;9.210;2023-04-25T13:46:43;7.93;;;5.50;;
46334;SDS011;32051;48.882;9.210;2023-04-25T13:49:11;7.10;;;6.43;;
46334;SDS011;32051;48.882;9.210;2023-04-25T13:51:37;11.10;;;8.43;;
46334;SDS011;32051;48.882;9.210;2023-04-25T13:54:03;7.75;;;6.50;;
46334;SDS011;32051;48.882;9.210;2023-04-25T13:56:29;7.45;;;6.70;;
46334;SDS011;32051;48.882;9.210;2023-04-25T13:58:55;10.25;;;6.00;;
46334;SDS011;32051;48.882;9.210;2023-04-25T14:01:21;8.02;;;6.00;;
46334;SDS011;32051;48.882;9.210;2023-04-25T14:03:47;6.53;;;5.88;;
46334;SDS011;32051;48.882;9.210;2023-04-25T14:06:13;6.80;;;6.28;;
46334;SDS011;32051;48.882;9.210;2023-04-25T14:08:46;13.80;;;5.68;;
46334;SDS011;32051;48.882;9.210;2023-04-25T14:11:12;6.10;;;5.50;;
46334;SDS011;32051;48.882;9.210;2023-04-25T14:13:38;8.93;;;5.38;;
46334;SDS011;32051;48.882;9.210;2023-04-25T14:16:04;7.95;;;5.53;;
46334;SDS011;32051;48.882;9.210;2023-04-25T14:18:30;6.18;;;5.68;;
46334;SDS011;32051;48.882;9.210;2023-04-25T14:20:56;7.35;;;5.90;;
46334;SDS011;32051;48.882;9.210;2023-04-25T14:23:22;7.15;;;4.32;;
46334;SDS011;32051;48.882;9.210;2023-04-25T14:25:48;6.32;;;4.28;;
46334;SDS011;32051;48.882;9.210;2023-04-25T14:28:13;5.70;;;4.10;;
46334;SDS011;32051;48.882;9.210;2023-04-25T14:30:39;4.47;;;4.13;;
46334;SDS011;32051;48.882;9.210;2023-04-25T14:33:05;4.90;;;3.97;;
46334;SDS011;32051;48.882;9.210;2023-04-25T14:35:31;5.32;;;3.92;;
46334;SDS011;32051;48.882;9.210;2023-04-25T14:37:56;9.35;;;4.60;;
46334;SDS011;32051;48.882;9.210;2023-04-25T14:40:23;6.18;;;3.85;;
46334;SDS011;32051;48.882;9.210;2023-04-25T14:42:49;5.32;;;4.80;;
46334;SDS011;32051;48.882;9.210;2023-04-25T14:45:16;10.02;;;4.97;;
46334;SDS011;32051;48.882;9.210;2023-04-25T14:47:42;8.57;;;5.00;;
46334;SDS011;32051;48.882;9.210;2023-04-25T14:50:09;5.20;;;4.50;;
46334;SDS011;32051;48.882;9.210;2023-04-25T14:52:35;7.18;;;5.35;;
46334;SDS011;32051;48.882;9.210;2023-04-25T14:55:01;10.00;;;5.55;;
46334;SDS011;32051;48.882;9.210;2023-04-25T14:57:31;6.75;;;3.20;;
46334;SDS011;32051;48.882;9.210;2023-04-25T15:00:00;3.28;;;2.97;;
46334;SDS011;32051;48.882;9.210;2023-04-25T15:02:27;7.50;;;3.72;;
46334;SDS011;32051;48.882;9.210;2023-04-25T15:04:53;5.60;;;4.03;;
46334;SDS011;32051;48.882;9.210;2023-04-25T15:07:20;7.55;;;4.22;;
46334;SDS011;32051;48.882;9.210;2023-04-25T15:09:47;11.20;;;4.32;;
46334;SDS011;32051;48.882;9.210;2023-04-25T15:12:13;5.25;;;4.32;;
46334;SDS011;32051;48.882;9.210;2023-04-25T15:14:40;4.10;;;3.80;;